Terminal Aerodrome Forecast
Issued by NWS

Home | Current Version | Previous Version | Text Only | Print | Product List | Glossary On
Versions: 1 2 3 4 5 6 7 8 9 10 11 12 13 14
000
FTUS41 KBOX 191121
TAFBAF
TAF
KBAF 191121Z 1912/2012 32005KT P6SM SKC
     FM191500 33010G20KT P6SM FEW050
     FM200200 36005KT P6SM SKC=

USA.gov is the U.S. government's official web portal to all federal, state and local government web resources and services.